sensor_id;sensor_type;location;lat;lon;timestamp;P1;durP1;ratioP1;P2;durP2;ratioP2
21188;SDS011;39071;52.420;20.896;2023-02-28T00:00:44;10.87;;;1.57;;
21188;SDS011;39071;52.420;20.896;2023-02-28T00:03:10;2.70;;;2.50;;
21188;SDS011;39071;52.420;20.896;2023-02-28T00:05:36;2.23;;;1.53;;
21188;SDS011;39071;52.420;20.896;2023-02-28T00:08:01;3.30;;;1.70;;
21188;SDS011;39071;52.420;20.896;2023-02-28T00:10:28;2.77;;;1.70;;
21188;SDS011;39071;52.420;20.896;2023-02-28T00:12:58;4.93;;;2.03;;
21188;SDS011;39071;52.420;20.896;2023-02-28T00:15:26;2.23;;;1.40;;
21188;SDS011;39071;52.420;20.896;2023-02-28T00:17:52;3.20;;;1.70;;
21188;SDS011;39071;52.420;20.896;2023-02-28T00:20:18;5.07;;;1.73;;
21188;SDS011;39071;52.420;20.896;2023-02-28T00:22:45;5.23;;;1.87;;
21188;SDS011;39071;52.420;20.896;2023-02-28T00:25:14;3.50;;;2.70;;
21188;SDS011;39071;52.420;20.896;2023-02-28T00:27:42;11.97;;;2.10;;
21188;SDS011;39071;52.420;20.896;2023-02-28T00:30:10;4.67;;;1.00;;
21188;SDS011;39071;52.420;20.896;2023-02-28T00:32:40;1.57;;;0.70;;
21188;SDS011;39071;52.420;20.896;2023-02-28T00:35:07;5.70;;;1.53;;
21188;SDS011;39071;52.420;20.896;2023-02-28T00:37:34;2.73;;;1.87;;
21188;SDS011;39071;52.420;20.896;2023-02-28T00:40:00;6.03;;;2.03;;
21188;SDS011;39071;52.420;20.896;2023-02-28T00:42:27;2.10;;;1.00;;
21188;SDS011;39071;52.420;20.896;2023-02-28T00:44:53;2.67;;;2.07;;
21188;SDS011;39071;52.420;20.896;2023-02-28T00:47:19;5.50;;;1.80;;
21188;SDS011;39071;52.420;20.896;2023-02-28T00:49:44;2.23;;;1.53;;
21188;SDS011;39071;52.420;20.896;2023-02-28T00:52:10;0.67;;;0.67;;
21188;SDS011;39071;52.420;20.896;2023-02-28T00:54:36;2.67;;;2.47;;
21188;SDS011;39071;52.420;20.896;2023-02-28T00:57:02;5.03;;;1.40;;
21188;SDS011;39071;52.420;20.896;2023-02-28T00:59:27;3.10;;;1.83;;
21188;SDS011;39071;52.420;20.896;2023-02-28T01:01:53;2.90;;;2.03;;
21188;SDS011;39071;52.420;20.896;2023-02-28T01:04:19;4.87;;;0.93;;
21188;SDS011;39071;52.420;20.896;2023-02-28T01:06:45;1.20;;;1.10;;
21188;SDS011;39071;52.420;20.896;2023-02-28T01:09:11;4.73;;;1.97;;
21188;SDS011;39071;52.420;20.896;2023-02-28T01:11:37;2.67;;;1.00;;
21188;SDS011;39071;52.420;20.896;2023-02-28T01:14:03;1.03;;;0.93;;
21188;SDS011;39071;52.420;20.896;2023-02-28T01:16:29;2.30;;;2.10;;
21188;SDS011;39071;52.420;20.896;2023-02-28T01:18:55;3.13;;;2.00;;
21188;SDS011;39071;52.420;20.896;2023-02-28T01:21:21;8.20;;;1.97;;
21188;SDS011;39071;52.420;20.896;2023-02-28T01:23:47;2.60;;;1.00;;
21188;SDS011;39071;52.420;20.896;2023-02-28T01:26:15;8.40;;;5.13;;
21188;SDS011;39071;52.420;20.896;2023-02-28T01:28:45;1.23;;;1.13;;
21188;SDS011;39071;52.420;20.896;2023-02-28T01:31:11;1.63;;;1.53;;
21188;SDS011;39071;52.420;20.896;2023-02-28T01:33:37;1.73;;;1.33;;
21188;SDS011;39071;52.420;20.896;2023-02-28T01:36:09;1.53;;;1.07;;
21188;SDS011;39071;52.420;20.896;2023-02-28T01:38:45;4.00;;;1.60;;
21188;SDS011;39071;52.420;20.896;2023-02-28T01:41:17;2.97;;;1.47;;
21188;SDS011;39071;52.420;20.896;2023-02-28T01:46:13;1.50;;;0.83;;
21188;SDS011;39071;52.420;20.896;2023-02-28T01:49:22;3.23;;;0.97;;
21188;SDS011;39071;52.420;20.896;2023-02-28T01:51:39;3.00;;;1.73;;
21188;SDS011;39071;52.420;20.896;2023-02-28T01:54:16;0.60;;;0.60;;
21188;SDS011;39071;52.420;20.896;2023-02-28T01:56:51;3.57;;;1.00;;
21188;SDS011;39071;52.420;20.896;2023-02-28T01:59:29;1.83;;;1.73;;
21188;SDS011;39071;52.420;20.896;2023-02-28T02:02:12;3.27;;;1.87;;
21188;SDS011;39071;52.420;20.896;2023-02-28T02:04:39;2.27;;;2.10;;
21188;SDS011;39071;52.420;20.896;2023-02-28T02:07:11;2.17;;;2.07;;
21188;SDS011;39071;52.420;20.896;2023-02-28T02:09:39;3.53;;;1.40;;
21188;SDS011;39071;52.420;20.896;2023-02-28T02:12:08;0.70;;;0.70;;
21188;SDS011;39071;52.420;20.896;2023-02-28T02:15:12;0.80;;;0.80;;
21188;SDS011;39071;52.420;20.896;2023-02-28T02:17:45;5.40;;;1.57;;
21188;SDS011;39071;52.420;20.896;2023-02-28T02:25:59;2.50;;;2.30;;
21188;SDS011;39071;52.420;20.896;2023-02-28T02:28:34;2.10;;;1.77;;
21188;SDS011;39071;52.420;20.896;2023-02-28T02:34:54;2.40;;;1.53;;
21188;SDS011;39071;52.420;20.896;2023-02-28T02:40:25;1.27;;;1.23;;
21188;SDS011;39071;52.420;20.896;2023-02-28T02:43:07;3.90;;;2.23;;
21188;SDS011;39071;52.420;20.896;2023-02-28T02:45:37;3.23;;;1.93;;
21188;SDS011;39071;52.420;20.896;2023-02-28T02:48:09;2.50;;;1.20;;
21188;SDS011;39071;52.420;20.896;2023-02-28T02:51:00;1.63;;;1.53;;
21188;SDS011;39071;52.420;20.896;2023-02-28T02:53:27;9.83;;;1.67;;
21188;SDS011;39071;52.420;20.896;2023-02-28T02:56:00;1.40;;;1.30;;
21188;SDS011;39071;52.420;20.896;2023-02-28T02:58:31;1.07;;;1.07;;
21188;SDS011;39071;52.420;20.896;2023-02-28T03:00:59;7.03;;;1.40;;
21188;SDS011;39071;52.420;20.896;2023-02-28T03:03:27;2.40;;;1.17;;
21188;SDS011;39071;52.420;20.896;2023-02-28T03:05:58;10.57;;;2.30;;
21188;SDS011;39071;52.420;20.896;2023-02-28T03:08:25;4.13;;;1.40;;
21188;SDS011;39071;52.420;20.896;2023-02-28T03:10:56;1.23;;;1.20;;
21188;SDS011;39071;52.420;20.896;2023-02-28T03:13:48;0.83;;;0.83;;
21188;SDS011;39071;52.420;20.896;2023-02-28T03:30:45;7.63;;;2.20;;
21188;SDS011;39071;52.420;20.896;2023-02-28T03:33:20;1.13;;;0.77;;
21188;SDS011;39071;52.420;20.896;2023-02-28T03:35:55;1.47;;;1.07;;
21188;SDS011;39071;52.420;20.896;2023-02-28T03:38:45;2.00;;;1.77;;
21188;SDS011;39071;52.420;20.896;2023-02-28T03:41:25;3.27;;;1.70;;
21188;SDS011;39071;52.420;20.896;2023-02-28T03:44:02;5.83;;;2.00;;
21188;SDS011;39071;52.420;20.896;2023-02-28T03:46:40;6.53;;;3.80;;
21188;SDS011;39071;52.420;20.896;2023-02-28T03:49:13;2.87;;;1.30;;
21188;SDS011;39071;52.420;20.896;2023-02-28T03:51:45;1.03;;;1.03;;
21188;SDS011;39071;52.420;20.896;2023-02-28T03:54:22;1.50;;;1.40;;
21188;SDS011;39071;52.420;20.896;2023-02-28T03:57:03;1.97;;;1.60;;
21188;SDS011;39071;52.420;20.896;2023-02-28T03:59:53;0.77;;;0.77;;
21188;SDS011;39071;52.420;20.896;2023-02-28T04:02:22;3.87;;;1.53;;
21188;SDS011;39071;52.420;20.896;2023-02-28T04:04:48;1.30;;;0.77;;
21188;SDS011;39071;52.420;20.896;2023-02-28T04:07:15;0.70;;;0.70;;
21188;SDS011;39071;52.420;20.896;2023-02-28T04:09:41;3.53;;;1.00;;
21188;SDS011;39071;52.420;20.896;2023-02-28T04:12:06;11.43;;;2.57;;
21188;SDS011;39071;52.420;20.896;2023-02-28T04:14:32;2.40;;;1.47;;
21188;SDS011;39071;52.420;20.896;2023-02-28T04:16:58;2.77;;;1.93;;
21188;SDS011;39071;52.420;20.896;2023-02-28T04:19:24;4.07;;;1.17;;
21188;SDS011;39071;52.420;20.896;2023-02-28T04:21:50;1.80;;;1.40;;
21188;SDS011;39071;52.420;20.896;2023-02-28T04:24:18;5.70;;;1.10;;
21188;SDS011;39071;52.420;20.896;2023-02-28T04:26:46;4.17;;;1.50;;
21188;SDS011;39071;52.420;20.896;2023-02-28T04:29:15;1.63;;;1.53;;
21188;SDS011;39071;52.420;20.896;2023-02-28T04:31:47;5.37;;;1.77;;
21188;SDS011;39071;52.420;20.896;2023-02-28T04:34:13;1.57;;;0.87;;
21188;SDS011;39071;52.420;20.896;2023-02-28T04:36:39;3.80;;;1.37;;
21188;SDS011;39071;52.420;20.896;2023-02-28T04:39:05;8.73;;;2.10;;
21188;SDS011;39071;52.420;20.896;2023-02-28T04:41:31;3.80;;;1.90;;
21188;SDS011;39071;52.420;20.896;2023-02-28T04:43:56;4.23;;;3.37;;
21188;SDS011;39071;52.420;20.896;2023-02-28T04:46:22;1.80;;;1.17;;
21188;SDS011;39071;52.420;20.896;2023-02-28T04:48:48;3.27;;;1.77;;
21188;SDS011;39071;52.420;20.896;2023-02-28T04:51:15;2.57;;;1.27;;
21188;SDS011;39071;52.420;20.896;2023-02-28T04:53:43;1.07;;;0.87;;
21188;SDS011;39071;52.420;20.896;2023-02-28T04:56:13;1.13;;;1.03;;
21188;SDS011;39071;52.420;20.896;2023-02-28T04:58:40;1.97;;;0.60;;
21188;SDS011;39071;52.420;20.896;2023-02-28T05:01:21;5.50;;;1.90;;
21188;SDS011;39071;52.420;20.896;2023-02-28T05:03:50;3.23;;;2.33;;
21188;SDS011;39071;52.420;20.896;2023-02-28T05:06:16;1.23;;;1.13;;
21188;SDS011;39071;52.420;20.896;2023-02-28T05:08:43;1.47;;;1.37;;
21188;SDS011;39071;52.420;20.896;2023-02-28T05:11:28;2.63;;;1.97;;
21188;SDS011;39071;52.420;20.896;2023-02-28T05:14:00;1.33;;;1.33;;
21188;SDS011;39071;52.420;20.896;2023-02-28T05:16:27;2.87;;;2.50;;
21188;SDS011;39071;52.420;20.896;2023-02-28T05:18:53;6.07;;;1.57;;
21188;SDS011;39071;52.420;20.896;2023-02-28T05:21:27;4.27;;;1.63;;
21188;SDS011;39071;52.420;20.896;2023-02-28T05:24:01;2.47;;;2.27;;
21188;SDS011;39071;52.420;20.896;2023-02-28T05:26:29;1.50;;;1.43;;
21188;SDS011;39071;52.420;20.896;2023-02-28T05:28:55;1.43;;;1.03;;
21188;SDS011;39071;52.420;20.896;2023-02-28T05:31:21;1.87;;;1.27;;
21188;SDS011;39071;52.420;20.896;2023-02-28T05:33:48;4.33;;;1.43;;
21188;SDS011;39071;52.420;20.896;2023-02-28T05:36:13;6.43;;;1.27;;
21188;SDS011;39071;52.420;20.896;2023-02-28T05:38:39;1.90;;;0.83;;
21188;SDS011;39071;52.420;20.896;2023-02-28T05:41:09;2.97;;;1.47;;
21188;SDS011;39071;52.420;20.896;2023-02-28T05:43:36;2.17;;;1.30;;
21188;SDS011;39071;52.420;20.896;2023-02-28T05:46:05;3.50;;;1.97;;
21188;SDS011;39071;52.420;20.896;2023-02-28T05:48:35;9.37;;;1.10;;
21188;SDS011;39071;52.420;20.896;2023-02-28T05:51:02;2.67;;;0.80;;
21188;SDS011;39071;52.420;20.896;2023-02-28T05:53:29;3.47;;;3.20;;
21188;SDS011;39071;52.420;20.896;2023-02-28T05:55:55;1.70;;;0.77;;
21188;SDS011;39071;52.420;20.896;2023-02-28T05:58:21;3.67;;;1.00;;
21188;SDS011;39071;52.420;20.896;2023-02-28T06:00:47;2.83;;;1.40;;
21188;SDS011;39071;52.420;20.896;2023-02-28T06:03:13;2.27;;;1.43;;
21188;SDS011;39071;52.420;20.896;2023-02-28T06:05:39;1.97;;;1.30;;
21188;SDS011;39071;52.420;20.896;2023-02-28T06:08:05;4.30;;;2.53;;
21188;SDS011;39071;52.420;20.896;2023-02-28T06:10:32;3.07;;;1.47;;
21188;SDS011;39071;52.420;20.896;2023-02-28T06:12:59;2.77;;;2.03;;
21188;SDS011;39071;52.420;20.896;2023-02-28T06:15:27;4.43;;;2.83;;
21188;SDS011;39071;52.420;20.896;2023-02-28T06:17:54;4.67;;;2.43;;
21188;SDS011;39071;52.420;20.896;2023-02-28T06:20:21;9.63;;;3.13;;
21188;SDS011;39071;52.420;20.896;2023-02-28T06:22:48;1.20;;;1.13;;
21188;SDS011;39071;52.420;20.896;2023-02-28T06:25:15;2.67;;;2.47;;
21188;SDS011;39071;52.420;20.896;2023-02-28T06:27:42;1.73;;;1.57;;
21188;SDS011;39071;52.420;20.896;2023-02-28T06:30:09;3.57;;;1.23;;
21188;SDS011;39071;52.420;20.896;2023-02-28T06:32:36;5.13;;;1.47;;
21188;SDS011;39071;52.420;20.896;2023-02-28T06:35:02;4.93;;;1.77;;
21188;SDS011;39071;52.420;20.896;2023-02-28T06:37:30;5.57;;;2.93;;
21188;SDS011;39071;52.420;20.896;2023-02-28T06:39:56;5.70;;;2.10;;
21188;SDS011;39071;52.420;20.896;2023-02-28T06:42:22;3.57;;;3.20;;
21188;SDS011;39071;52.420;20.896;2023-02-28T06:44:54;6.97;;;2.00;;
21188;SDS011;39071;52.420;20.896;2023-02-28T06:47:21;6.67;;;3.87;;
21188;SDS011;39071;52.420;20.896;2023-02-28T06:49:47;8.50;;;2.77;;
21188;SDS011;39071;52.420;20.896;2023-02-28T06:52:13;6.30;;;2.93;;
21188;SDS011;39071;52.420;20.896;2023-02-28T06:54:39;4.77;;;3.83;;
21188;SDS011;39071;52.420;20.896;2023-02-28T06:57:05;6.20;;;2.30;;
21188;SDS011;39071;52.420;20.896;2023-02-28T06:59:31;8.90;;;3.60;;
21188;SDS011;39071;52.420;20.896;2023-02-28T07:01:56;1.73;;;1.53;;
21188;SDS011;39071;52.420;20.896;2023-02-28T07:04:22;15.57;;;3.23;;
21188;SDS011;39071;52.420;20.896;2023-02-28T07:06:48;7.43;;;3.27;;
21188;SDS011;39071;52.420;20.896;2023-02-28T07:09:14;2.83;;;1.50;;
21188;SDS011;39071;52.420;20.896;2023-02-28T07:11:39;12.10;;;2.93;;
21188;SDS011;39071;52.420;20.896;2023-02-28T07:14:06;11.10;;;2.47;;
21188;SDS011;39071;52.420;20.896;2023-02-28T07:16:32;6.03;;;3.67;;
21188;SDS011;39071;52.420;20.896;2023-02-28T07:18:58;5.03;;;3.30;;
21188;SDS011;39071;52.420;20.896;2023-02-28T07:21:24;6.57;;;3.67;;
21188;SDS011;39071;52.420;20.896;2023-02-28T07:23:50;13.67;;;5.53;;
21188;SDS011;39071;52.420;20.896;2023-02-28T07:26:17;17.50;;;6.40;;
21188;SDS011;39071;52.420;20.896;2023-02-28T07:28:45;23.83;;;9.00;;
21188;SDS011;39071;52.420;20.896;2023-02-28T07:31:12;18.70;;;8.43;;
21188;SDS011;39071;52.420;20.896;2023-02-28T07:33:39;16.23;;;6.30;;
21188;SDS011;39071;52.420;20.896;2023-02-28T07:36:12;17.00;;;7.33;;
21188;SDS011;39071;52.420;20.896;2023-02-28T07:38:40;20.63;;;8.57;;
21188;SDS011;39071;52.420;20.896;2023-02-28T07:41:15;15.37;;;7.70;;
21188;SDS011;39071;52.420;20.896;2023-02-28T07:43:43;14.70;;;6.17;;
21188;SDS011;39071;52.420;20.896;2023-02-28T07:46:10;25.23;;;8.33;;
21188;SDS011;39071;52.420;20.896;2023-02-28T07:48:39;20.70;;;9.50;;
21188;SDS011;39071;52.420;20.896;2023-02-28T07:51:06;19.90;;;8.37;;
21188;SDS011;39071;52.420;20.896;2023-02-28T07:53:32;11.70;;;5.07;;
21188;SDS011;39071;52.420;20.896;2023-02-28T07:55:59;7.60;;;3.37;;
21188;SDS011;39071;52.420;20.896;2023-02-28T07:58:26;7.70;;;3.80;;
21188;SDS011;39071;52.420;20.896;2023-02-28T08:00:53;12.17;;;4.53;;
21188;SDS011;39071;52.420;20.896;2023-02-28T08:03:20;8.37;;;4.23;;
21188;SDS011;39071;52.420;20.896;2023-02-28T08:05:47;4.90;;;3.17;;
21188;SDS011;39071;52.420;20.896;2023-02-28T08:08:14;9.67;;;3.67;;
21188;SDS011;39071;52.420;20.896;2023-02-28T08:10:40;8.63;;;4.00;;
21188;SDS011;39071;52.420;20.896;2023-02-28T08:13:07;7.90;;;4.47;;
21188;SDS011;39071;52.420;20.896;2023-02-28T08:15:32;8.47;;;3.83;;
21188;SDS011;39071;52.420;20.896;2023-02-28T08:17:58;8.97;;;3.87;;
21188;SDS011;39071;52.420;20.896;2023-02-28T08:20:24;10.47;;;4.30;;
21188;SDS011;39071;52.420;20.896;2023-02-28T08:22:50;10.13;;;3.93;;
21188;SDS011;39071;52.420;20.896;2023-02-28T08:25:17;5.30;;;2.87;;
21188;SDS011;39071;52.420;20.896;2023-02-28T08:27:43;6.90;;;3.37;;
21188;SDS011;39071;52.420;20.896;2023-02-28T08:30:10;5.80;;;3.30;;
21188;SDS011;39071;52.420;20.896;2023-02-28T08:32:37;6.63;;;2.80;;
21188;SDS011;39071;52.420;20.896;2023-02-28T08:35:03;7.70;;;4.30;;
21188;SDS011;39071;52.420;20.896;2023-02-28T08:37:29;6.47;;;3.60;;
21188;SDS011;39071;52.420;20.896;2023-02-28T08:39:55;9.70;;;4.00;;
21188;SDS011;39071;52.420;20.896;2023-02-28T08:42:20;5.27;;;2.73;;
21188;SDS011;39071;52.420;20.896;2023-02-28T08:44:46;6.60;;;2.77;;
21188;SDS011;39071;52.420;20.896;2023-02-28T08:47:12;8.80;;;3.27;;
21188;SDS011;39071;52.420;20.896;2023-02-28T08:49:37;8.77;;;3.73;;
21188;SDS011;39071;52.420;20.896;2023-02-28T08:52:03;8.63;;;2.67;;
21188;SDS011;39071;52.420;20.896;2023-02-28T08:54:29;8.60;;;2.87;;
21188;SDS011;39071;52.420;20.896;2023-02-28T08:56:56;5.20;;;2.73;;
21188;SDS011;39071;52.420;20.896;2023-02-28T08:59:22;5.83;;;2.53;;
21188;SDS011;39071;52.420;20.896;2023-02-28T09:01:48;5.80;;;1.90;;
21188;SDS011;39071;52.420;20.896;2023-02-28T09:04:14;5.60;;;2.87;;
21188;SDS011;39071;52.420;20.896;2023-02-28T09:06:39;6.30;;;2.70;;
21188;SDS011;39071;52.420;20.896;2023-02-28T09:09:05;7.83;;;2.30;;
21188;SDS011;39071;52.420;20.896;2023-02-28T09:11:32;3.33;;;2.07;;
21188;SDS011;39071;52.420;20.896;2023-02-28T09:14:00;6.93;;;2.47;;
21188;SDS011;39071;52.420;20.896;2023-02-28T09:16:28;5.60;;;2.47;;
21188;SDS011;39071;52.420;20.896;2023-02-28T09:18:54;1.87;;;1.57;;
21188;SDS011;39071;52.420;20.896;2023-02-28T09:21:20;5.60;;;3.53;;
21188;SDS011;39071;52.420;20.896;2023-02-28T09:23:47;6.13;;;3.10;;
21188;SDS011;39071;52.420;20.896;2023-02-28T09:26:19;5.67;;;2.73;;
21188;SDS011;39071;52.420;20.896;2023-02-28T09:28:47;6.10;;;1.73;;
21188;SDS011;39071;52.420;20.896;2023-02-28T09:31:14;5.03;;;1.60;;
21188;SDS011;39071;52.420;20.896;2023-02-28T09:33:42;6.15;;;2.88;;
21188;SDS011;39071;52.420;20.896;2023-02-28T09:36:08;10.17;;;2.83;;
21188;SDS011;39071;52.420;20.896;2023-02-28T09:38:33;10.43;;;2.23;;
21188;SDS011;39071;52.420;20.896;2023-02-28T09:41:02;3.20;;;1.70;;
21188;SDS011;39071;52.420;20.896;2023-02-28T09:43:36;4.03;;;2.33;;
21188;SDS011;39071;52.420;20.896;2023-02-28T09:49:02;3.93;;;1.73;;
21188;SDS011;39071;52.420;20.896;2023-02-28T09:51:40;2.63;;;1.73;;
21188;SDS011;39071;52.420;20.896;2023-02-28T09:54:18;2.10;;;1.50;;
21188;SDS011;39071;52.420;20.896;2023-02-28T09:56:50;4.50;;;2.10;;
21188;SDS011;39071;52.420;20.896;2023-02-28T10:05:12;3.97;;;1.60;;
21188;SDS011;39071;52.420;20.896;2023-02-28T10:10:40;3.50;;;2.03;;
21188;SDS011;39071;52.420;20.896;2023-02-28T10:13:44;4.90;;;2.27;;
21188;SDS011;39071;52.420;20.896;2023-02-28T10:19:06;2.93;;;1.33;;
21188;SDS011;39071;52.420;20.896;2023-02-28T10:22:13;2.53;;;1.63;;
21188;SDS011;39071;52.420;20.896;2023-02-28T10:27:13;5.60;;;2.13;;
21188;SDS011;39071;52.420;20.896;2023-02-28T10:29:45;5.37;;;2.00;;
21188;SDS011;39071;52.420;20.896;2023-02-28T10:32:20;4.07;;;1.83;;
21188;SDS011;39071;52.420;20.896;2023-02-28T10:35:14;6.17;;;2.40;;
21188;SDS011;39071;52.420;20.896;2023-02-28T10:37:38;4.53;;;2.43;;
21188;SDS011;39071;52.420;20.896;2023-02-28T10:45:23;3.93;;;1.90;;
21188;SDS011;39071;52.420;20.896;2023-02-28T10:47:53;3.07;;;1.60;;
21188;SDS011;39071;52.420;20.896;2023-02-28T10:56:06;7.23;;;2.10;;
21188;SDS011;39071;52.420;20.896;2023-02-28T10:58:54;11.83;;;2.73;;
21188;SDS011;39071;52.420;20.896;2023-02-28T11:03:55;5.80;;;2.63;;
21188;SDS011;39071;52.420;20.896;2023-02-28T11:06:31;10.10;;;2.57;;
21188;SDS011;39071;52.420;20.896;2023-02-28T11:09:06;3.30;;;1.73;;
21188;SDS011;39071;52.420;20.896;2023-02-28T11:11:46;6.60;;;2.50;;
21188;SDS011;39071;52.420;20.896;2023-02-28T11:14:32;5.10;;;2.37;;
21188;SDS011;39071;52.420;20.896;2023-02-28T11:17:13;7.60;;;3.37;;
21188;SDS011;39071;52.420;20.896;2023-02-28T11:19:45;6.50;;;2.50;;
21188;SDS011;39071;52.420;20.896;2023-02-28T11:22:16;4.20;;;2.07;;
21188;SDS011;39071;52.420;20.896;2023-02-28T11:24:47;5.80;;;2.30;;
21188;SDS011;39071;52.420;20.896;2023-02-28T11:30:18;7.23;;;2.63;;
21188;SDS011;39071;52.420;20.896;2023-02-28T11:32:48;3.13;;;2.20;;
21188;SDS011;39071;52.420;20.896;2023-02-28T11:35:17;3.93;;;2.10;;
21188;SDS011;39071;52.420;20.896;2023-02-28T11:37:50;3.33;;;2.10;;
21188;SDS011;39071;52.420;20.896;2023-02-28T11:40:18;3.00;;;1.97;;
21188;SDS011;39071;52.420;20.896;2023-02-28T11:45:53;4.10;;;2.23;;
21188;SDS011;39071;52.420;20.896;2023-02-28T11:51:19;2.37;;;1.70;;
21188;SDS011;39071;52.420;20.896;2023-02-28T12:04:03;3.37;;;1.20;;
21188;SDS011;39071;52.420;20.896;2023-02-28T12:06:45;4.30;;;1.90;;
21188;SDS011;39071;52.420;20.896;2023-02-28T12:11:55;4.23;;;2.17;;
21188;SDS011;39071;52.420;20.896;2023-02-28T12:17:27;3.03;;;2.03;;
21188;SDS011;39071;52.420;20.896;2023-02-28T12:26:02;4.27;;;1.90;;
21188;SDS011;39071;52.420;20.896;2023-02-28T12:28:49;2.87;;;1.90;;
21188;SDS011;39071;52.420;20.896;2023-02-28T12:31:23;3.50;;;2.13;;
21188;SDS011;39071;52.420;20.896;2023-02-28T12:33:53;5.57;;;1.40;;
21188;SDS011;39071;52.420;20.896;2023-02-28T12:36:41;6.90;;;3.53;;
21188;SDS011;39071;52.420;20.896;2023-02-28T12:39:44;4.43;;;1.37;;
21188;SDS011;39071;52.420;20.896;2023-02-28T12:42:13;3.77;;;1.83;;
21188;SDS011;39071;52.420;20.896;2023-02-28T12:44:46;3.37;;;1.87;;
21188;SDS011;39071;52.420;20.896;2023-02-28T12:47:24;2.83;;;2.30;;
21188;SDS011;39071;52.420;20.896;2023-02-28T12:50:02;3.60;;;1.73;;
21188;SDS011;39071;52.420;20.896;2023-02-28T13:09:04;6.40;;;1.93;;
21188;SDS011;39071;52.420;20.896;2023-02-28T13:11:45;3.27;;;1.80;;
21188;SDS011;39071;52.420;20.896;2023-02-28T13:14:21;4.30;;;2.60;;
21188;SDS011;39071;52.420;20.896;2023-02-28T13:19:33;4.43;;;2.27;;
21188;SDS011;39071;52.420;20.896;2023-02-28T13:22:02;4.93;;;1.77;;
21188;SDS011;39071;52.420;20.896;2023-02-28T13:47:30;7.77;;;3.10;;
21188;SDS011;39071;52.420;20.896;2023-02-28T13:53:33;4.53;;;1.93;;
21188;SDS011;39071;52.420;20.896;2023-02-28T13:55:58;4.63;;;2.30;;
21188;SDS011;39071;52.420;20.896;2023-02-28T14:03:58;4.50;;;2.40;;
21188;SDS011;39071;52.420;20.896;2023-02-28T14:06:51;4.43;;;2.77;;
21188;SDS011;39071;52.420;20.896;2023-02-28T14:09:31;5.43;;;1.93;;
21188;SDS011;39071;52.420;20.896;2023-02-28T14:12:50;3.17;;;1.93;;
21188;SDS011;39071;52.420;20.896;2023-02-28T14:15:03;2.80;;;1.50;;
21188;SDS011;39071;52.420;20.896;2023-02-28T14:17:53;5.43;;;2.53;;
21188;SDS011;39071;52.420;20.896;2023-02-28T14:20:21;6.13;;;1.90;;
21188;SDS011;39071;52.420;20.896;2023-02-28T14:33:18;2.63;;;1.40;;
21188;SDS011;39071;52.420;20.896;2023-02-28T14:39:14;4.47;;;1.43;;
21188;SDS011;39071;52.420;20.896;2023-02-28T14:41:32;4.83;;;2.37;;
21188;SDS011;39071;52.420;20.896;2023-02-28T14:44:13;2.90;;;1.73;;
21188;SDS011;39071;52.420;20.896;2023-02-28T14:46:39;6.40;;;2.27;;
21188;SDS011;39071;52.420;20.896;2023-02-28T14:49:06;3.83;;;1.77;;
21188;SDS011;39071;52.420;20.896;2023-02-28T14:51:43;5.93;;;2.40;;
21188;SDS011;39071;52.420;20.896;2023-02-28T14:54:12;5.20;;;2.63;;
21188;SDS011;39071;52.420;20.896;2023-02-28T14:56:40;5.13;;;2.23;;
21188;SDS011;39071;52.420;20.896;2023-02-28T14:59:21;3.97;;;2.37;;
21188;SDS011;39071;52.420;20.896;2023-02-28T15:04:58;7.83;;;2.27;;
21188;SDS011;39071;52.420;20.896;2023-02-28T15:07:26;5.37;;;1.90;;
21188;SDS011;39071;52.420;20.896;2023-02-28T15:12:39;4.60;;;2.30;;
21188;SDS011;39071;52.420;20.896;2023-02-28T15:15:13;8.27;;;2.57;;
21188;SDS011;39071;52.420;20.896;2023-02-28T15:17:50;6.63;;;2.20;;
21188;SDS011;39071;52.420;20.896;2023-02-28T15:20:19;6.37;;;2.27;;
21188;SDS011;39071;52.420;20.896;2023-02-28T15:22:46;10.20;;;2.30;;
21188;SDS011;39071;52.420;20.896;2023-02-28T15:25:17;5.40;;;2.83;;
21188;SDS011;39071;52.420;20.896;2023-02-28T15:27:46;7.83;;;3.37;;
21188;SDS011;39071;52.420;20.896;2023-02-28T15:30:19;7.03;;;2.83;;
21188;SDS011;39071;52.420;20.896;2023-02-28T15:33:07;8.80;;;4.60;;
21188;SDS011;39071;52.420;20.896;2023-02-28T15:35:36;8.27;;;4.40;;
21188;SDS011;39071;52.420;20.896;2023-02-28T15:38:24;10.23;;;4.10;;
21188;SDS011;39071;52.420;20.896;2023-02-28T15:40:51;3.63;;;2.43;;
21188;SDS011;39071;52.420;20.896;2023-02-28T15:43:29;3.13;;;1.90;;
21188;SDS011;39071;52.420;20.896;2023-02-28T15:46:00;4.17;;;2.90;;
21188;SDS011;39071;52.420;20.896;2023-02-28T15:48:35;6.23;;;2.67;;
21188;SDS011;39071;52.420;20.896;2023-02-28T15:53:58;4.43;;;2.57;;
21188;SDS011;39071;52.420;20.896;2023-02-28T15:56:30;6.07;;;3.17;;
21188;SDS011;39071;52.420;20.896;2023-02-28T15:58:58;8.93;;;3.97;;
21188;SDS011;39071;52.420;20.896;2023-02-28T16:01:34;18.40;;;4.60;;
21188;SDS011;39071;52.420;20.896;2023-02-28T16:04:05;9.30;;;3.37;;
21188;SDS011;39071;52.420;20.896;2023-02-28T16:06:47;10.40;;;4.57;;
21188;SDS011;39071;52.420;20.896;2023-02-28T16:09:28;10.23;;;3.73;;
21188;SDS011;39071;52.420;20.896;2023-02-28T16:11:56;14.83;;;5.37;;
21188;SDS011;39071;52.420;20.896;2023-02-28T16:14:26;16.07;;;5.73;;
21188;SDS011;39071;52.420;20.896;2023-02-28T16:16:56;16.27;;;4.57;;
21188;SDS011;39071;52.420;20.896;2023-02-28T16:19:27;9.00;;;4.60;;
21188;SDS011;39071;52.420;20.896;2023-02-28T16:21:53;15.93;;;5.93;;
21188;SDS011;39071;52.420;20.896;2023-02-28T16:24:19;16.03;;;4.53;;
21188;SDS011;39071;52.420;20.896;2023-02-28T16:26:48;4.63;;;2.20;;
21188;SDS011;39071;52.420;20.896;2023-02-28T16:29:19;9.33;;;2.67;;
21188;SDS011;39071;52.420;20.896;2023-02-28T16:31:47;5.20;;;1.47;;
21188;SDS011;39071;52.420;20.896;2023-02-28T16:34:13;3.83;;;1.53;;
21188;SDS011;39071;52.420;20.896;2023-02-28T16:36:38;11.23;;;2.57;;
21188;SDS011;39071;52.420;20.896;2023-02-28T16:39:05;7.33;;;2.37;;
21188;SDS011;39071;52.420;20.896;2023-02-28T16:41:31;6.77;;;2.43;;
21188;SDS011;39071;52.420;20.896;2023-02-28T16:43:58;4.10;;;2.03;;
21188;SDS011;39071;52.420;20.896;2023-02-28T16:46:30;14.30;;;2.90;;
21188;SDS011;39071;52.420;20.896;2023-02-28T16:48:58;3.67;;;2.03;;
21188;SDS011;39071;52.420;20.896;2023-02-28T16:51:23;3.93;;;1.77;;
21188;SDS011;39071;52.420;20.896;2023-02-28T16:53:52;6.17;;;3.13;;
21188;SDS011;39071;52.420;20.896;2023-02-28T16:56:19;8.93;;;2.83;;
21188;SDS011;39071;52.420;20.896;2023-02-28T16:58:46;4.00;;;2.67;;
21188;SDS011;39071;52.420;20.896;2023-02-28T17:01:13;4.57;;;1.90;;
21188;SDS011;39071;52.420;20.896;2023-02-28T17:03:39;6.37;;;2.37;;
21188;SDS011;39071;52.420;20.896;2023-02-28T17:06:06;2.90;;;2.00;;
21188;SDS011;39071;52.420;20.896;2023-02-28T17:08:40;9.13;;;3.83;;
21188;SDS011;39071;52.420;20.896;2023-02-28T17:11:06;3.63;;;2.37;;
21188;SDS011;39071;52.420;20.896;2023-02-28T17:13:33;13.53;;;3.47;;
21188;SDS011;39071;52.420;20.896;2023-02-28T17:15:59;5.33;;;2.23;;
21188;SDS011;39071;52.420;20.896;2023-02-28T17:18:25;14.43;;;4.43;;
21188;SDS011;39071;52.420;20.896;2023-02-28T17:20:53;5.63;;;3.43;;
21188;SDS011;39071;52.420;20.896;2023-02-28T17:23:19;4.37;;;2.03;;
21188;SDS011;39071;52.420;20.896;2023-02-28T17:25:45;4.17;;;2.17;;
21188;SDS011;39071;52.420;20.896;2023-02-28T17:28:18;9.30;;;3.57;;
21188;SDS011;39071;52.420;20.896;2023-02-28T17:30:46;9.83;;;2.80;;
21188;SDS011;39071;52.420;20.896;2023-02-28T17:33:13;8.50;;;3.10;;
21188;SDS011;39071;52.420;20.896;2023-02-28T17:35:39;6.30;;;3.23;;